sensor_id;sensor_type;location;lat;lon;timestamp;temperature;humidity
39493;DHT22;25176;51.060;3.720;2022-12-31T00:00:52;13.30;99.90
39493;DHT22;25176;51.060;3.720;2022-12-31T00:03:18;13.30;99.90
39493;DHT22;25176;51.060;3.720;2022-12-31T00:05:43;13.20;99.90
39493;DHT22;25176;51.060;3.720;2022-12-31T00:08:08;13.20;99.90
39493;DHT22;25176;51.060;3.720;2022-12-31T00:10:34;13.20;99.90
39493;DHT22;25176;51.060;3.720;2022-12-31T00:13:09;13.10;99.90
39493;DHT22;25176;51.060;3.720;2022-12-31T00:15:34;13.10;99.90
39493;DHT22;25176;51.060;3.720;2022-12-31T00:18:00;13.10;99.90
39493;DHT22;25176;51.060;3.720;2022-12-31T00:20:26;13.10;99.90
39493;DHT22;25176;51.060;3.720;2022-12-31T00:22:51;13.10;99.90
39493;DHT22;25176;51.060;3.720;2022-12-31T00:25:17;13.20;99.90
39493;DHT22;25176;51.060;3.720;2022-12-31T00:27:42;13.10;99.90
39493;DHT22;25176;51.060;3.720;2022-12-31T00:30:08;13.20;99.90
39493;DHT22;25176;51.060;3.720;2022-12-31T00:32:33;13.10;99.90
39493;DHT22;25176;51.060;3.720;2022-12-31T00:34:59;13.20;99.90
39493;DHT22;25176;51.060;3.720;2022-12-31T00:37:24;13.20;99.90
39493;DHT22;25176;51.060;3.720;2022-12-31T00:39:49;13.20;99.90
39493;DHT22;25176;51.060;3.720;2022-12-31T00:42:15;13.10;99.90
39493;DHT22;25176;51.060;3.720;2022-12-31T00:44:40;13.00;99.90
39493;DHT22;25176;51.060;3.720;2022-12-31T00:47:06;12.90;99.90
39493;DHT22;25176;51.060;3.720;2022-12-31T00:49:31;12.80;99.90
39493;DHT22;25176;51.060;3.720;2022-12-31T00:51:57;12.80;99.90
39493;DHT22;25176;51.060;3.720;2022-12-31T00:54:22;12.70;99.90
39493;DHT22;25176;51.060;3.720;2022-12-31T00:56:48;12.70;99.90
39493;DHT22;25176;51.060;3.720;2022-12-31T00:59:13;12.70;99.90
39493;DHT22;25176;51.060;3.720;2022-12-31T01:01:39;12.80;99.90
39493;DHT22;25176;51.060;3.720;2022-12-31T01:04:07;12.80;99.90
39493;DHT22;25176;51.060;3.720;2022-12-31T01:06:33;12.70;99.90
39493;DHT22;25176;51.060;3.720;2022-12-31T01:08:59;12.70;99.90
39493;DHT22;25176;51.060;3.720;2022-12-31T01:11:24;12.60;99.90
39493;DHT22;25176;51.060;3.720;2022-12-31T01:13:58;12.60;99.90
39493;DHT22;25176;51.060;3.720;2022-12-31T01:16:25;12.70;99.90
39493;DHT22;25176;51.060;3.720;2022-12-31T01:18:51;12.70;99.90
39493;DHT22;25176;51.060;3.720;2022-12-31T01:21:17;12.80;99.90
39493;DHT22;25176;51.060;3.720;2022-12-31T01:23:43;12.70;99.90
39493;DHT22;25176;51.060;3.720;2022-12-31T01:26:10;12.80;99.90
39493;DHT22;25176;51.060;3.720;2022-12-31T01:28:35;12.80;99.90
39493;DHT22;25176;51.060;3.720;2022-12-31T01:31:08;12.80;99.90
39493;DHT22;25176;51.060;3.720;2022-12-31T01:33:34;12.80;99.90
39493;DHT22;25176;51.060;3.720;2022-12-31T01:36:01;12.90;99.90
39493;DHT22;25176;51.060;3.720;2022-12-31T01:38:27;12.90;99.90
39493;DHT22;25176;51.060;3.720;2022-12-31T01:40:53;12.90;99.90
39493;DHT22;25176;51.060;3.720;2022-12-31T01:43:19;12.90;99.90
39493;DHT22;25176;51.060;3.720;2022-12-31T01:45:45;12.80;99.90
39493;DHT22;25176;51.060;3.720;2022-12-31T01:48:13;12.80;99.90
39493;DHT22;25176;51.060;3.720;2022-12-31T01:50:39;12.90;99.90
39493;DHT22;25176;51.060;3.720;2022-12-31T01:53:05;12.90;99.90
39493;DHT22;25176;51.060;3.720;2022-12-31T01:55:32;13.00;99.90
39493;DHT22;25176;51.060;3.720;2022-12-31T01:58:09;13.10;99.90
39493;DHT22;25176;51.060;3.720;2022-12-31T02:00:36;13.10;99.90
39493;DHT22;25176;51.060;3.720;2022-12-31T02:03:02;13.10;99.90
39493;DHT22;25176;51.060;3.720;2022-12-31T02:05:31;13.10;99.90
39493;DHT22;25176;51.060;3.720;2022-12-31T02:07:58;13.20;99.90
39493;DHT22;25176;51.060;3.720;2022-12-31T02:10:23;13.30;99.90
39493;DHT22;25176;51.060;3.720;2022-12-31T02:12:49;13.10;99.90
39493;DHT22;25176;51.060;3.720;2022-12-31T02:15:15;13.00;99.90
39493;DHT22;25176;51.060;3.720;2022-12-31T02:17:50;12.90;99.90
39493;DHT22;25176;51.060;3.720;2022-12-31T02:30:40;12.90;99.90
39493;DHT22;25176;51.060;3.720;2022-12-31T02:33:15;12.90;99.90
39493;DHT22;25176;51.060;3.720;2022-12-31T02:35:52;12.70;99.90
39493;DHT22;25176;51.060;3.720;2022-12-31T02:38:19;12.70;99.90
39493;DHT22;25176;51.060;3.720;2022-12-31T02:40:45;12.80;99.90
39493;DHT22;25176;51.060;3.720;2022-12-31T02:43:12;12.80;99.90
39493;DHT22;25176;51.060;3.720;2022-12-31T02:45:45;12.80;99.90
39493;DHT22;25176;51.060;3.720;2022-12-31T02:50:47;12.80;99.90
39493;DHT22;25176;51.060;3.720;2022-12-31T02:56:21;12.90;99.90
39493;DHT22;25176;51.060;3.720;2022-12-31T02:58:53;13.00;99.90
39493;DHT22;25176;51.060;3.720;2022-12-31T03:01:40;12.90;99.90
39493;DHT22;25176;51.060;3.720;2022-12-31T03:04:26;12.90;99.90
39493;DHT22;25176;51.060;3.720;2022-12-31T03:07:08;12.90;99.90
39493;DHT22;25176;51.060;3.720;2022-12-31T03:09:34;13.00;99.90
39493;DHT22;25176;51.060;3.720;2022-12-31T03:12:00;13.00;99.90
39493;DHT22;25176;51.060;3.720;2022-12-31T03:14:45;13.00;99.90
39493;DHT22;25176;51.060;3.720;2022-12-31T03:17:10;13.00;99.90
39493;DHT22;25176;51.060;3.720;2022-12-31T03:19:36;13.10;99.90
39493;DHT22;25176;51.060;3.720;2022-12-31T03:22:20;13.10;99.90
39493;DHT22;25176;51.060;3.720;2022-12-31T03:25:14;13.20;99.90
39493;DHT22;25176;51.060;3.720;2022-12-31T03:27:56;13.30;99.90
39493;DHT22;25176;51.060;3.720;2022-12-31T03:30:22;13.40;99.90
39493;DHT22;25176;51.060;3.720;2022-12-31T03:32:48;13.30;99.90
39493;DHT22;25176;51.060;3.720;2022-12-31T03:35:14;13.30;99.90
39493;DHT22;25176;51.060;3.720;2022-12-31T03:37:40;13.30;99.90
39493;DHT22;25176;51.060;3.720;2022-12-31T03:40:06;13.40;99.90
39493;DHT22;25176;51.060;3.720;2022-12-31T03:42:32;13.60;99.90
39493;DHT22;25176;51.060;3.720;2022-12-31T03:44:57;13.60;99.90
39493;DHT22;25176;51.060;3.720;2022-12-31T03:47:23;13.60;99.90
39493;DHT22;25176;51.060;3.720;2022-12-31T03:49:48;13.60;99.90
39493;DHT22;25176;51.060;3.720;2022-12-31T03:52:14;13.70;99.90
39493;DHT22;25176;51.060;3.720;2022-12-31T03:54:39;13.70;99.90
39493;DHT22;25176;51.060;3.720;2022-12-31T03:57:05;13.70;99.90
39493;DHT22;25176;51.060;3.720;2022-12-31T03:59:30;13.70;99.90
39493;DHT22;25176;51.060;3.720;2022-12-31T04:01:56;13.70;99.90
39493;DHT22;25176;51.060;3.720;2022-12-31T04:04:21;13.60;99.90
39493;DHT22;25176;51.060;3.720;2022-12-31T04:06:47;13.60;99.90
39493;DHT22;25176;51.060;3.720;2022-12-31T04:09:12;13.70;99.90
39493;DHT22;25176;51.060;3.720;2022-12-31T04:11:38;13.70;99.90
39493;DHT22;25176;51.060;3.720;2022-12-31T04:14:03;13.70;99.90
39493;DHT22;25176;51.060;3.720;2022-12-31T04:16:29;13.80;99.90
39493;DHT22;25176;51.060;3.720;2022-12-31T04:18:55;13.80;99.90
39493;DHT22;25176;51.060;3.720;2022-12-31T04:21:20;13.70;99.90
39493;DHT22;25176;51.060;3.720;2022-12-31T04:23:46;13.70;99.90
39493;DHT22;25176;51.060;3.720;2022-12-31T04:26:11;13.80;99.90
39493;DHT22;25176;51.060;3.720;2022-12-31T04:28:36;13.80;99.90
39493;DHT22;25176;51.060;3.720;2022-12-31T04:31:02;13.80;99.90
39493;DHT22;25176;51.060;3.720;2022-12-31T04:33:28;13.80;99.90
39493;DHT22;25176;51.060;3.720;2022-12-31T04:35:59;13.90;99.90
39493;DHT22;25176;51.060;3.720;2022-12-31T04:38:24;13.90;99.90
39493;DHT22;25176;51.060;3.720;2022-12-31T04:40:50;13.90;99.90
39493;DHT22;25176;51.060;3.720;2022-12-31T04:43:34;13.90;99.90
39493;DHT22;25176;51.060;3.720;2022-12-31T04:45:59;13.90;99.90
39493;DHT22;25176;51.060;3.720;2022-12-31T04:48:25;14.00;99.90
39493;DHT22;25176;51.060;3.720;2022-12-31T04:50:50;14.00;99.90
39493;DHT22;25176;51.060;3.720;2022-12-31T04:53:16;14.10;99.90
39493;DHT22;25176;51.060;3.720;2022-12-31T04:55:41;14.10;99.90
39493;DHT22;25176;51.060;3.720;2022-12-31T04:58:07;14.00;99.90
39493;DHT22;25176;51.060;3.720;2022-12-31T05:00:32;14.00;99.90
39493;DHT22;25176;51.060;3.720;2022-12-31T05:02:57;14.00;99.90
39493;DHT22;25176;51.060;3.720;2022-12-31T05:05:23;14.10;99.90
39493;DHT22;25176;51.060;3.720;2022-12-31T05:07:48;14.10;99.90
39493;DHT22;25176;51.060;3.720;2022-12-31T05:10:14;14.30;99.90
39493;DHT22;25176;51.060;3.720;2022-12-31T05:12:39;14.20;99.90
39493;DHT22;25176;51.060;3.720;2022-12-31T05:15:05;14.30;99.90
39493;DHT22;25176;51.060;3.720;2022-12-31T05:17:31;14.30;99.90
39493;DHT22;25176;51.060;3.720;2022-12-31T05:19:56;14.20;99.90
39493;DHT22;25176;51.060;3.720;2022-12-31T05:22:22;14.30;99.90
39493;DHT22;25176;51.060;3.720;2022-12-31T05:24:53;14.30;99.90
39493;DHT22;25176;51.060;3.720;2022-12-31T05:27:19;14.40;99.90
39493;DHT22;25176;51.060;3.720;2022-12-31T05:29:44;14.40;99.90
39493;DHT22;25176;51.060;3.720;2022-12-31T05:32:10;14.40;99.90
39493;DHT22;25176;51.060;3.720;2022-12-31T05:34:35;14.40;99.90
39493;DHT22;25176;51.060;3.720;2022-12-31T05:37:00;14.40;99.90
39493;DHT22;25176;51.060;3.720;2022-12-31T05:39:26;14.50;99.90
39493;DHT22;25176;51.060;3.720;2022-12-31T05:41:51;14.50;99.90
39493;DHT22;25176;51.060;3.720;2022-12-31T05:44:17;14.60;99.90
39493;DHT22;25176;51.060;3.720;2022-12-31T05:46:42;14.60;99.90
39493;DHT22;25176;51.060;3.720;2022-12-31T05:49:08;14.50;99.90
39493;DHT22;25176;51.060;3.720;2022-12-31T05:51:33;14.60;99.90
39493;DHT22;25176;51.060;3.720;2022-12-31T05:53:59;14.50;99.90
39493;DHT22;25176;51.060;3.720;2022-12-31T05:56:24;14.60;99.90
39493;DHT22;25176;51.060;3.720;2022-12-31T05:58:50;14.60;99.90
39493;DHT22;25176;51.060;3.720;2022-12-31T06:01:15;14.60;99.90
39493;DHT22;25176;51.060;3.720;2022-12-31T06:03:41;14.70;99.90
39493;DHT22;25176;51.060;3.720;2022-12-31T06:06:06;14.60;99.90
39493;DHT22;25176;51.060;3.720;2022-12-31T06:08:32;14.60;99.90
39493;DHT22;25176;51.060;3.720;2022-12-31T06:10:57;14.60;99.90
39493;DHT22;25176;51.060;3.720;2022-12-31T06:13:23;14.60;99.90
39493;DHT22;25176;51.060;3.720;2022-12-31T06:15:48;14.60;99.90
39493;DHT22;25176;51.060;3.720;2022-12-31T06:18:14;14.60;99.90
39493;DHT22;25176;51.060;3.720;2022-12-31T06:20:39;14.60;99.90
39493;DHT22;25176;51.060;3.720;2022-12-31T06:23:05;14.70;99.90
39493;DHT22;25176;51.060;3.720;2022-12-31T06:25:30;14.70;99.90
39493;DHT22;25176;51.060;3.720;2022-12-31T06:27:56;14.70;99.90
39493;DHT22;25176;51.060;3.720;2022-12-31T06:30:22;14.80;99.90
39493;DHT22;25176;51.060;3.720;2022-12-31T06:32:47;14.70;99.90
39493;DHT22;25176;51.060;3.720;2022-12-31T06:35:12;14.80;99.90
39493;DHT22;25176;51.060;3.720;2022-12-31T06:37:38;14.80;99.90
39493;DHT22;25176;51.060;3.720;2022-12-31T06:40:04;14.70;99.90
39493;DHT22;25176;51.060;3.720;2022-12-31T06:42:29;14.70;99.90
39493;DHT22;25176;51.060;3.720;2022-12-31T06:44:56;14.70;99.90
39493;DHT22;25176;51.060;3.720;2022-12-31T06:47:21;14.70;99.90
39493;DHT22;25176;51.060;3.720;2022-12-31T06:49:47;14.70;99.90
39493;DHT22;25176;51.060;3.720;2022-12-31T06:52:12;14.80;99.90
39493;DHT22;25176;51.060;3.720;2022-12-31T06:54:38;14.70;99.90
39493;DHT22;25176;51.060;3.720;2022-12-31T06:57:03;14.70;99.90
39493;DHT22;25176;51.060;3.720;2022-12-31T06:59:29;14.80;99.90
39493;DHT22;25176;51.060;3.720;2022-12-31T07:04:43;14.80;99.90
39493;DHT22;25176;51.060;3.720;2022-12-31T07:07:18;14.70;99.90
39493;DHT22;25176;51.060;3.720;2022-12-31T07:12:19;14.70;99.90
39493;DHT22;25176;51.060;3.720;2022-12-31T07:14:50;14.70;99.90
39493;DHT22;25176;51.060;3.720;2022-12-31T07:19:47;14.80;99.90
39493;DHT22;25176;51.060;3.720;2022-12-31T07:22:16;14.80;99.90
39493;DHT22;25176;51.060;3.720;2022-12-31T07:24:42;14.80;99.90
39493;DHT22;25176;51.060;3.720;2022-12-31T07:30:02;14.80;99.90
39493;DHT22;25176;51.060;3.720;2022-12-31T07:42:37;14.70;99.90
39493;DHT22;25176;51.060;3.720;2022-12-31T07:47:37;14.80;99.90
39493;DHT22;25176;51.060;3.720;2022-12-31T07:50:03;14.80;99.90
39493;DHT22;25176;51.060;3.720;2022-12-31T07:52:29;14.80;99.90
39493;DHT22;25176;51.060;3.720;2022-12-31T07:54:54;14.70;99.90
39493;DHT22;25176;51.060;3.720;2022-12-31T07:57:20;14.70;99.90
39493;DHT22;25176;51.060;3.720;2022-12-31T07:59:51;14.70;99.90
39493;DHT22;25176;51.060;3.720;2022-12-31T08:04:57;14.70;99.90
39493;DHT22;25176;51.060;3.720;2022-12-31T08:12:30;14.70;99.90
39493;DHT22;25176;51.060;3.720;2022-12-31T08:14:56;14.70;99.90
39493;DHT22;25176;51.060;3.720;2022-12-31T08:17:22;14.70;99.90
39493;DHT22;25176;51.060;3.720;2022-12-31T08:19:48;14.70;99.90
39493;DHT22;25176;51.060;3.720;2022-12-31T08:24:42;14.60;99.90
39493;DHT22;25176;51.060;3.720;2022-12-31T08:27:17;14.50;99.90
39493;DHT22;25176;51.060;3.720;2022-12-31T08:29:54;14.50;99.90
39493;DHT22;25176;51.060;3.720;2022-12-31T08:32:45;14.50;99.90
39493;DHT22;25176;51.060;3.720;2022-12-31T08:35:27;14.40;99.90
39493;DHT22;25176;51.060;3.720;2022-12-31T08:37:58;14.50;99.90
39493;DHT22;25176;51.060;3.720;2022-12-31T08:40:31;14.60;99.90
39493;DHT22;25176;51.060;3.720;2022-12-31T08:50:27;14.60;99.90
39493;DHT22;25176;51.060;3.720;2022-12-31T08:52:53;14.60;99.90
39493;DHT22;25176;51.060;3.720;2022-12-31T08:55:18;14.70;99.90
39493;DHT22;25176;51.060;3.720;2022-12-31T08:57:50;14.70;99.90
39493;DHT22;25176;51.060;3.720;2022-12-31T09:00:18;14.70;99.90
39493;DHT22;25176;51.060;3.720;2022-12-31T09:05:36;14.70;99.90
39493;DHT22;25176;51.060;3.720;2022-12-31T09:10:59;14.80;99.90
39493;DHT22;25176;51.060;3.720;2022-12-31T09:18:39;14.90;99.90
39493;DHT22;25176;51.060;3.720;2022-12-31T09:21:04;14.90;99.90
39493;DHT22;25176;51.060;3.720;2022-12-31T09:23:30;15.00;99.90
39493;DHT22;25176;51.060;3.720;2022-12-31T09:30:57;15.00;99.90
39493;DHT22;25176;51.060;3.720;2022-12-31T09:33:35;15.10;99.90
39493;DHT22;25176;51.060;3.720;2022-12-31T09:36:04;15.10;99.90
39493;DHT22;25176;51.060;3.720;2022-12-31T09:38:42;15.10;99.90
39493;DHT22;25176;51.060;3.720;2022-12-31T09:41:24;15.00;99.90
39493;DHT22;25176;51.060;3.720;2022-12-31T09:46:33;15.10;99.90
39493;DHT22;25176;51.060;3.720;2022-12-31T09:49:25;15.20;99.90
39493;DHT22;25176;51.060;3.720;2022-12-31T09:52:08;15.20;99.90
39493;DHT22;25176;51.060;3.720;2022-12-31T10:00:30;15.10;99.90
39493;DHT22;25176;51.060;3.720;2022-12-31T10:08:07;15.20;99.90
39493;DHT22;25176;51.060;3.720;2022-12-31T10:15:45;15.20;99.90
39493;DHT22;25176;51.060;3.720;2022-12-31T10:33:44;15.30;99.90
39493;DHT22;25176;51.060;3.720;2022-12-31T10:36:19;15.40;99.90
39493;DHT22;25176;51.060;3.720;2022-12-31T10:39:02;15.30;99.90
39493;DHT22;25176;51.060;3.720;2022-12-31T10:51:52;15.20;99.90
39493;DHT22;25176;51.060;3.720;2022-12-31T10:54:49;15.10;99.90
39493;DHT22;25176;51.060;3.720;2022-12-31T11:00:09;15.20;99.90
39493;DHT22;25176;51.060;3.720;2022-12-31T11:08:07;15.30;99.90
39493;DHT22;25176;51.060;3.720;2022-12-31T11:25:41;15.20;99.90
39493;DHT22;25176;51.060;3.720;2022-12-31T11:28:15;15.20;99.90
39493;DHT22;25176;51.060;3.720;2022-12-31T11:31:08;15.20;99.90
39493;DHT22;25176;51.060;3.720;2022-12-31T11:38:51;15.20;99.90
39493;DHT22;25176;51.060;3.720;2022-12-31T11:41:34;15.10;99.90
39493;DHT22;25176;51.060;3.720;2022-12-31T11:49:01;15.10;99.90
39493;DHT22;25176;51.060;3.720;2022-12-31T11:51:40;15.10;99.90
39493;DHT22;25176;51.060;3.720;2022-12-31T11:54:26;15.10;99.90
39493;DHT22;25176;51.060;3.720;2022-12-31T11:57:17;15.20;99.90
39493;DHT22;25176;51.060;3.720;2022-12-31T11:59:40;15.10;99.90
39493;DHT22;25176;51.060;3.720;2022-12-31T12:04:34;15.10;99.90
39493;DHT22;25176;51.060;3.720;2022-12-31T12:07:00;15.10;99.90
39493;DHT22;25176;51.060;3.720;2022-12-31T12:09:26;15.20;99.90
39493;DHT22;25176;51.060;3.720;2022-12-31T12:11:56;15.20;99.90
39493;DHT22;25176;51.060;3.720;2022-12-31T12:14:35;15.20;99.90
39493;DHT22;25176;51.060;3.720;2022-12-31T12:17:01;15.20;99.90
39493;DHT22;25176;51.060;3.720;2022-12-31T12:19:29;15.20;99.90
39493;DHT22;25176;51.060;3.720;2022-12-31T12:21:54;15.30;99.90
39493;DHT22;25176;51.060;3.720;2022-12-31T12:26:46;15.40;99.90
39493;DHT22;25176;51.060;3.720;2022-12-31T12:31:37;15.40;99.90
39493;DHT22;25176;51.060;3.720;2022-12-31T12:34:03;15.40;99.90
39493;DHT22;25176;51.060;3.720;2022-12-31T12:36:29;15.40;99.90
39493;DHT22;25176;51.060;3.720;2022-12-31T12:39:04;15.50;99.90
39493;DHT22;25176;51.060;3.720;2022-12-31T12:41:30;15.60;99.90
39493;DHT22;25176;51.060;3.720;2022-12-31T12:44:03;15.50;99.90
39493;DHT22;25176;51.060;3.720;2022-12-31T12:46:30;15.50;99.90
39493;DHT22;25176;51.060;3.720;2022-12-31T12:48:57;15.50;99.90
39493;DHT22;25176;51.060;3.720;2022-12-31T12:54:04;15.60;99.90
39493;DHT22;25176;51.060;3.720;2022-12-31T13:01:33;15.70;99.90
39493;DHT22;25176;51.060;3.720;2022-12-31T13:12:45;15.70;99.90
39493;DHT22;25176;51.060;3.720;2022-12-31T13:15:33;15.80;99.90
39493;DHT22;25176;51.060;3.720;2022-12-31T13:18:19;15.80;99.90
39493;DHT22;25176;51.060;3.720;2022-12-31T13:20:49;15.80;99.90
39493;DHT22;25176;51.060;3.720;2022-12-31T13:23:32;15.80;99.90
39493;DHT22;25176;51.060;3.720;2022-12-31T13:28:29;15.80;99.90
39493;DHT22;25176;51.060;3.720;2022-12-31T13:30:57;15.80;99.90
39493;DHT22;25176;51.060;3.720;2022-12-31T13:33:24;15.80;99.90
39493;DHT22;25176;51.060;3.720;2022-12-31T13:35:55;15.70;99.90
39493;DHT22;25176;51.060;3.720;2022-12-31T13:38:32;15.70;99.90
39493;DHT22;25176;51.060;3.720;2022-12-31T13:40:59;15.70;99.90
39493;DHT22;25176;51.060;3.720;2022-12-31T13:43:31;15.70;99.90
39493;DHT22;25176;51.060;3.720;2022-12-31T13:46:11;15.70;99.90
39493;DHT22;25176;51.060;3.720;2022-12-31T13:48:41;15.60;99.90
39493;DHT22;25176;51.060;3.720;2022-12-31T13:51:43;15.70;99.90
39493;DHT22;25176;51.060;3.720;2022-12-31T13:54:02;15.80;99.90
39493;DHT22;25176;51.060;3.720;2022-12-31T13:56:33;15.70;99.90
39493;DHT22;25176;51.060;3.720;2022-12-31T13:59:03;15.70;99.90
39493;DHT22;25176;51.060;3.720;2022-12-31T14:06:42;15.80;99.90
39493;DHT22;25176;51.060;3.720;2022-12-31T14:09:29;15.70;99.90
39493;DHT22;25176;51.060;3.720;2022-12-31T14:19:35;15.60;99.90
39493;DHT22;25176;51.060;3.720;2022-12-31T14:22:29;15.60;99.90
39493;DHT22;25176;51.060;3.720;2022-12-31T14:24:51;15.60;99.90
39493;DHT22;25176;51.060;3.720;2022-12-31T14:27:34;15.50;99.90
39493;DHT22;25176;51.060;3.720;2022-12-31T14:30:14;15.50;99.90
39493;DHT22;25176;51.060;3.720;2022-12-31T14:35:19;15.50;99.90
39493;DHT22;25176;51.060;3.720;2022-12-31T14:37:51;15.50;99.90
39493;DHT22;25176;51.060;3.720;2022-12-31T14:40:25;15.60;99.90
39493;DHT22;25176;51.060;3.720;2022-12-31T14:51:01;15.50;99.90
39493;DHT22;25176;51.060;3.720;2022-12-31T14:53:27;15.60;99.90
39493;DHT22;25176;51.060;3.720;2022-12-31T14:56:00;15.50;99.90
39493;DHT22;25176;51.060;3.720;2022-12-31T15:00:59;15.50;99.90
39493;DHT22;25176;51.060;3.720;2022-12-31T15:17:15;15.50;99.90
39493;DHT22;25176;51.060;3.720;2022-12-31T15:22:41;15.50;99.90
39493;DHT22;25176;51.060;3.720;2022-12-31T15:27:43;15.40;99.90
39493;DHT22;25176;51.060;3.720;2022-12-31T15:32:58;15.40;99.90
39493;DHT22;25176;51.060;3.720;2022-12-31T15:35:26;15.30;99.90
39493;DHT22;25176;51.060;3.720;2022-12-31T15:37:57;15.20;99.90
39493;DHT22;25176;51.060;3.720;2022-12-31T15:40:23;15.20;99.90
39493;DHT22;25176;51.060;3.720;2022-12-31T15:42:49;15.20;99.90
39493;DHT22;25176;51.060;3.720;2022-12-31T15:45:21;15.20;99.90
39493;DHT22;25176;51.060;3.720;2022-12-31T15:47:47;15.40;99.90
39493;DHT22;25176;51.060;3.720;2022-12-31T15:50:19;15.30;99.90
39493;DHT22;25176;51.060;3.720;2022-12-31T15:52:46;15.30;99.90
39493;DHT22;25176;51.060;3.720;2022-12-31T15:55:18;15.40;99.90
39493;DHT22;25176;51.060;3.720;2022-12-31T15:57:44;15.30;99.90
39493;DHT22;25176;51.060;3.720;2022-12-31T16:02:41;15.20;99.90
39493;DHT22;25176;51.060;3.720;2022-12-31T16:05:17;15.20;99.90
39493;DHT22;25176;51.060;3.720;2022-12-31T16:07:43;15.20;99.90
39493;DHT22;25176;51.060;3.720;2022-12-31T16:10:13;15.20;99.90
39493;DHT22;25176;51.060;3.720;2022-12-31T16:12:39;15.10;99.90
39493;DHT22;25176;51.060;3.720;2022-12-31T16:15:05;15.10;99.90
39493;DHT22;25176;51.060;3.720;2022-12-31T16:17:32;15.00;99.90
39493;DHT22;25176;51.060;3.720;2022-12-31T16:19:58;15.10;99.90
39493;DHT22;25176;51.060;3.720;2022-12-31T16:22:25;15.00;99.90
39493;DHT22;25176;51.060;3.720;2022-12-31T16:24:55;15.20;99.90
39493;DHT22;25176;51.060;3.720;2022-12-31T16:27:21;15.20;99.90
39493;DHT22;25176;51.060;3.720;2022-12-31T16:29:47;15.10;99.90
39493;DHT22;25176;51.060;3.720;2022-12-31T16:32:14;15.10;99.90
39493;DHT22;25176;51.060;3.720;2022-12-31T16:34:40;15.20;99.90
39493;DHT22;25176;51.060;3.720;2022-12-31T16:37:11;15.10;99.90
39493;DHT22;25176;51.060;3.720;2022-12-31T16:39:47;15.10;99.90
39493;DHT22;25176;51.060;3.720;2022-12-31T16:42:18;15.20;99.90
39493;DHT22;25176;51.060;3.720;2022-12-31T16:44:44;15.20;99.90
39493;DHT22;25176;51.060;3.720;2022-12-31T16:47:18;15.10;99.90
39493;DHT22;25176;51.060;3.720;2022-12-31T16:49:45;15.10;99.90
39493;DHT22;25176;51.060;3.720;2022-12-31T16:52:20;15.10;99.90
39493;DHT22;25176;51.060;3.720;2022-12-31T16:54:48;15.10;99.90
39493;DHT22;25176;51.060;3.720;2022-12-31T16:57:18;15.20;99.90
39493;DHT22;25176;51.060;3.720;2022-12-31T16:59:44;15.10;99.90
39493;DHT22;25176;51.060;3.720;2022-12-31T17:02:12;15.10;99.90
39493;DHT22;25176;51.060;3.720;2022-12-31T17:04:40;15.10;99.90
39493;DHT22;25176;51.060;3.720;2022-12-31T17:07:23;15.20;99.90
39493;DHT22;25176;51.060;3.720;2022-12-31T17:09:48;15.20;99.90
39493;DHT22;25176;51.060;3.720;2022-12-31T17:12:25;15.10;99.90
39493;DHT22;25176;51.060;3.720;2022-12-31T17:14:52;15.10;99.90
39493;DHT22;25176;51.060;3.720;2022-12-31T17:17:24;15.20;99.90
39493;DHT22;25176;51.060;3.720;2022-12-31T17:19:55;15.20;99.90
39493;DHT22;25176;51.060;3.720;2022-12-31T17:24:49;15.20;99.90
39493;DHT22;25176;51.060;3.720;2022-12-31T17:27:15;15.30;99.90
39493;DHT22;25176;51.060;3.720;2022-12-31T17:29:41;15.20;99.90
39493;DHT22;25176;51.060;3.720;2022-12-31T17:34:49;15.20;99.90
39493;DHT22;25176;51.060;3.720;2022-12-31T17:37:16;15.20;99.90
39493;DHT22;25176;51.060;3.720;2022-12-31T17:39:46;15.20;99.90
39493;DHT22;25176;51.060;3.720;2022-12-31T17:42:12;15.00;99.90
39493;DHT22;25176;51.060;3.720;2022-12-31T17:44:40;15.10;99.90
39493;DHT22;25176;51.060;3.720;2022-12-31T17:47:07;15.10;99.90
39493;DHT22;25176;51.060;3.720;2022-12-31T17:49:35;15.10;99.90
39493;DHT22;25176;51.060;3.720;2022-12-31T17:52:01;15.10;99.90
39493;DHT22;25176;51.060;3.720;2022-12-31T17:54:27;15.00;99.90
39493;DHT22;25176;51.060;3.720;2022-12-31T17:56:52;15.00;99.90
39493;DHT22;25176;51.060;3.720;2022-12-31T17:59:21;14.90;99.90
39493;DHT22;25176;51.060;3.720;2022-12-31T18:01:47;14.90;99.90
39493;DHT22;25176;51.060;3.720;2022-12-31T18:04:14;14.90;99.90
39493;DHT22;25176;51.060;3.720;2022-12-31T18:06:40;14.90;99.90
39493;DHT22;25176;51.060;3.720;2022-12-31T18:09:06;14.90;99.90
39493;DHT22;25176;51.060;3.720;2022-12-31T18:11:32;14.90;99.90
39493;DHT22;25176;51.060;3.720;2022-12-31T18:14:00;14.90;99.90
39493;DHT22;25176;51.060;3.720;2022-12-31T18:16:25;14.90;99.90
39493;DHT22;25176;51.060;3.720;2022-12-31T18:18:51;14.80;99.90
39493;DHT22;25176;51.060;3.720;2022-12-31T18:21:18;14.80;99.90
39493;DHT22;25176;51.060;3.720;2022-12-31T18:23:46;14.90;99.90
39493;DHT22;25176;51.060;3.720;2022-12-31T18:26:13;14.90;99.90
39493;DHT22;25176;51.060;3.720;2022-12-31T18:28:39;14.90;99.90
39493;DHT22;25176;51.060;3.720;2022-12-31T18:31:05;14.90;99.90
39493;DHT22;25176;51.060;3.720;2022-12-31T18:33:31;14.90;99.90
39493;DHT22;25176;51.060;3.720;2022-12-31T18:35:56;14.90;99.90
39493;DHT22;25176;51.060;3.720;2022-12-31T18:38:21;14.90;99.90
39493;DHT22;25176;51.060;3.720;2022-12-31T18:40:49;14.80;99.90
39493;DHT22;25176;51.060;3.720;2022-12-31T18:43:17;14.80;99.90
39493;DHT22;25176;51.060;3.720;2022-12-31T18:45:43;14.80;99.90
39493;DHT22;25176;51.060;3.720;2022-12-31T18:48:08;14.90;99.90
39493;DHT22;25176;51.060;3.720;2022-12-31T18:50:34;14.90;99.90
39493;DHT22;25176;51.060;3.720;2022-12-31T18:53:00;14.80;99.90
39493;DHT22;25176;51.060;3.720;2022-12-31T18:55:26;14.90;99.90
39493;DHT22;25176;51.060;3.720;2022-12-31T18:57:56;14.80;99.90
39493;DHT22;25176;51.060;3.720;2022-12-31T19:00:21;14.80;99.90
39493;DHT22;25176;51.060;3.720;2022-12-31T19:02:47;14.90;99.90
39493;DHT22;25176;51.060;3.720;2022-12-31T19:05:22;14.90;99.90
39493;DHT22;25176;51.060;3.720;2022-12-31T19:07:48;15.00;99.90
39493;DHT22;25176;51.060;3.720;2022-12-31T19:10:14;14.90;99.90
39493;DHT22;25176;51.060;3.720;2022-12-31T19:12:40;15.00;99.90
39493;DHT22;25176;51.060;3.720;2022-12-31T19:17:50;14.90;99.90
39493;DHT22;25176;51.060;3.720;2022-12-31T19:20:16;14.80;99.90
39493;DHT22;25176;51.060;3.720;2022-12-31T19:22:41;14.90;99.90
39493;DHT22;25176;51.060;3.720;2022-12-31T19:25:21;14.90;99.90
39493;DHT22;25176;51.060;3.720;2022-12-31T19:27:47;14.90;99.90
39493;DHT22;25176;51.060;3.720;2022-12-31T19:30:17;14.90;99.90
39493;DHT22;25176;51.060;3.720;2022-12-31T19:32:43;14.90;99.90
39493;DHT22;25176;51.060;3.720;2022-12-31T19:35:10;15.00;99.90